sensor_id;sensor_type;location;lat;lon;timestamp;P1;durP1;ratioP1;P2;durP2;ratioP2
64875;SDS011;51369;49.862;9.908;2023-04-19T00:02:18;10.90;;;7.60;;
64875;SDS011;51369;49.862;9.908;2023-04-19T00:04:44;11.32;;;7.63;;
64875;SDS011;51369;49.862;9.908;2023-04-19T00:07:10;11.18;;;8.05;;
64875;SDS011;51369;49.862;9.908;2023-04-19T00:09:35;12.02;;;7.97;;
64875;SDS011;51369;49.862;9.908;2023-04-19T00:12:04;10.13;;;7.40;;
64875;SDS011;51369;49.862;9.908;2023-04-19T00:14:30;13.55;;;7.93;;
64875;SDS011;51369;49.862;9.908;2023-04-19T00:16:55;11.57;;;7.97;;
64875;SDS011;51369;49.862;9.908;2023-04-19T00:19:21;12.63;;;8.15;;
64875;SDS011;51369;49.862;9.908;2023-04-19T00:21:47;12.20;;;8.07;;
64875;SDS011;51369;49.862;9.908;2023-04-19T00:24:13;11.05;;;7.85;;
64875;SDS011;51369;49.862;9.908;2023-04-19T00:26:38;12.35;;;7.82;;
64875;SDS011;51369;49.862;9.908;2023-04-19T00:29:04;14.98;;;8.85;;
64875;SDS011;51369;49.862;9.908;2023-04-19T00:31:31;13.05;;;8.88;;
64875;SDS011;51369;49.862;9.908;2023-04-19T00:33:57;14.13;;;8.38;;
64875;SDS011;51369;49.862;9.908;2023-04-19T00:36:25;14.65;;;8.68;;
64875;SDS011;51369;49.862;9.908;2023-04-19T00:38:51;14.48;;;8.85;;
64875;SDS011;51369;49.862;9.908;2023-04-19T00:41:16;13.73;;;7.88;;
64875;SDS011;51369;49.862;9.908;2023-04-19T00:43:42;15.23;;;8.23;;
64875;SDS011;51369;49.862;9.908;2023-04-19T00:46:07;13.77;;;9.32;;
64875;SDS011;51369;49.862;9.908;2023-04-19T00:48:33;12.13;;;8.60;;
64875;SDS011;51369;49.862;9.908;2023-04-19T00:51:00;11.82;;;8.30;;
64875;SDS011;51369;49.862;9.908;2023-04-19T00:53:26;12.90;;;8.55;;
64875;SDS011;51369;49.862;9.908;2023-04-19T00:55:51;13.65;;;8.52;;
64875;SDS011;51369;49.862;9.908;2023-04-19T00:58:22;16.20;;;9.77;;
64875;SDS011;51369;49.862;9.908;2023-04-19T01:00:47;14.20;;;9.48;;
64875;SDS011;51369;49.862;9.908;2023-04-19T01:03:13;15.43;;;9.38;;
64875;SDS011;51369;49.862;9.908;2023-04-19T01:05:38;13.85;;;9.20;;
64875;SDS011;51369;49.862;9.908;2023-04-19T01:08:04;13.80;;;9.38;;
64875;SDS011;51369;49.862;9.908;2023-04-19T01:10:30;13.15;;;8.82;;
64875;SDS011;51369;49.862;9.908;2023-04-19T01:12:55;13.05;;;9.05;;
64875;SDS011;51369;49.862;9.908;2023-04-19T01:15:20;12.23;;;8.50;;
64875;SDS011;51369;49.862;9.908;2023-04-19T01:17:48;16.23;;;9.27;;
64875;SDS011;51369;49.862;9.908;2023-04-19T01:20:13;17.83;;;9.65;;
64875;SDS011;51369;49.862;9.908;2023-04-19T01:22:39;14.52;;;9.48;;
64875;SDS011;51369;49.862;9.908;2023-04-19T01:25:05;15.27;;;9.55;;
64875;SDS011;51369;49.862;9.908;2023-04-19T01:27:31;12.40;;;9.10;;
64875;SDS011;51369;49.862;9.908;2023-04-19T01:29:57;16.75;;;9.77;;
64875;SDS011;51369;49.862;9.908;2023-04-19T01:32:25;14.50;;;9.68;;
64875;SDS011;51369;49.862;9.908;2023-04-19T01:34:51;13.60;;;9.63;;
64875;SDS011;51369;49.862;9.908;2023-04-19T01:37:16;14.65;;;9.65;;
64875;SDS011;51369;49.862;9.908;2023-04-19T01:39:42;12.50;;;8.55;;
64875;SDS011;51369;49.862;9.908;2023-04-19T01:42:07;19.30;;;10.15;;
64875;SDS011;51369;49.862;9.908;2023-04-19T01:44:35;13.15;;;9.23;;
64875;SDS011;51369;49.862;9.908;2023-04-19T01:47:00;13.38;;;8.85;;
64875;SDS011;51369;49.862;9.908;2023-04-19T01:49:25;15.00;;;9.35;;
64875;SDS011;51369;49.862;9.908;2023-04-19T01:51:51;15.75;;;9.45;;
64875;SDS011;51369;49.862;9.908;2023-04-19T01:54:16;13.07;;;8.57;;
64875;SDS011;51369;49.862;9.908;2023-04-19T01:56:41;14.85;;;9.82;;
64875;SDS011;51369;49.862;9.908;2023-04-19T01:59:08;16.08;;;9.90;;
64875;SDS011;51369;49.862;9.908;2023-04-19T02:01:33;18.00;;;10.70;;
64875;SDS011;51369;49.862;9.908;2023-04-19T02:03:59;16.27;;;9.48;;
64875;SDS011;51369;49.862;9.908;2023-04-19T02:06:26;14.57;;;10.68;;
64875;SDS011;51369;49.862;9.908;2023-04-19T02:08:51;17.20;;;11.05;;
64875;SDS011;51369;49.862;9.908;2023-04-19T02:11:17;13.25;;;9.23;;
64875;SDS011;51369;49.862;9.908;2023-04-19T02:13:42;15.20;;;9.95;;
64875;SDS011;51369;49.862;9.908;2023-04-19T02:16:08;14.93;;;9.68;;
64875;SDS011;51369;49.862;9.908;2023-04-19T02:18:35;15.32;;;9.85;;
64875;SDS011;51369;49.862;9.908;2023-04-19T02:21:02;15.00;;;9.32;;
64875;SDS011;51369;49.862;9.908;2023-04-19T02:23:29;14.50;;;9.68;;
64875;SDS011;51369;49.862;9.908;2023-04-19T02:25:54;15.13;;;9.25;;
64875;SDS011;51369;49.862;9.908;2023-04-19T02:28:20;15.07;;;9.52;;
64875;SDS011;51369;49.862;9.908;2023-04-19T02:30:45;13.38;;;9.25;;
64875;SDS011;51369;49.862;9.908;2023-04-19T02:33:11;16.15;;;9.48;;
64875;SDS011;51369;49.862;9.908;2023-04-19T02:35:37;13.40;;;9.18;;
64875;SDS011;51369;49.862;9.908;2023-04-19T02:38:02;14.25;;;9.10;;
64875;SDS011;51369;49.862;9.908;2023-04-19T02:40:28;13.48;;;9.07;;
64875;SDS011;51369;49.862;9.908;2023-04-19T02:42:57;17.08;;;8.93;;
64875;SDS011;51369;49.862;9.908;2023-04-19T02:45:23;16.40;;;10.05;;
64875;SDS011;51369;49.862;9.908;2023-04-19T02:47:48;13.85;;;9.75;;
64875;SDS011;51369;49.862;9.908;2023-04-19T02:50:14;16.02;;;10.43;;
64875;SDS011;51369;49.862;9.908;2023-04-19T02:52:45;16.77;;;10.23;;
64875;SDS011;51369;49.862;9.908;2023-04-19T02:55:10;18.10;;;10.75;;
64875;SDS011;51369;49.862;9.908;2023-04-19T02:57:36;14.85;;;9.85;;
64875;SDS011;51369;49.862;9.908;2023-04-19T03:00:02;17.33;;;11.13;;
64875;SDS011;51369;49.862;9.908;2023-04-19T03:02:30;15.95;;;10.10;;
64875;SDS011;51369;49.862;9.908;2023-04-19T03:04:56;17.85;;;10.75;;
64875;SDS011;51369;49.862;9.908;2023-04-19T03:07:21;16.77;;;10.25;;
64875;SDS011;51369;49.862;9.908;2023-04-19T03:09:47;16.58;;;10.43;;
64875;SDS011;51369;49.862;9.908;2023-04-19T03:12:12;18.48;;;10.30;;
64875;SDS011;51369;49.862;9.908;2023-04-19T03:14:38;16.15;;;10.93;;
64875;SDS011;51369;49.862;9.908;2023-04-19T03:17:04;20.52;;;11.13;;
64875;SDS011;51369;49.862;9.908;2023-04-19T03:19:29;15.70;;;9.95;;
64875;SDS011;51369;49.862;9.908;2023-04-19T03:21:55;16.02;;;10.60;;
64875;SDS011;51369;49.862;9.908;2023-04-19T03:24:28;15.30;;;9.38;;
64875;SDS011;51369;49.862;9.908;2023-04-19T03:26:55;16.88;;;10.50;;
64875;SDS011;51369;49.862;9.908;2023-04-19T03:29:25;16.75;;;10.35;;
64875;SDS011;51369;49.862;9.908;2023-04-19T03:31:56;16.00;;;10.00;;
64875;SDS011;51369;49.862;9.908;2023-04-19T03:34:22;13.10;;;8.98;;
64875;SDS011;51369;49.862;9.908;2023-04-19T03:36:48;17.08;;;10.85;;
64875;SDS011;51369;49.862;9.908;2023-04-19T03:39:13;14.38;;;9.98;;
64875;SDS011;51369;49.862;9.908;2023-04-19T03:41:41;16.60;;;11.07;;
64875;SDS011;51369;49.862;9.908;2023-04-19T03:44:20;16.70;;;10.27;;
64875;SDS011;51369;49.862;9.908;2023-04-19T03:46:46;15.30;;;9.63;;
64875;SDS011;51369;49.862;9.908;2023-04-19T03:49:14;15.02;;;10.05;;
64875;SDS011;51369;49.862;9.908;2023-04-19T03:51:42;19.40;;;11.68;;
64875;SDS011;51369;49.862;9.908;2023-04-19T03:54:08;17.60;;;10.75;;
64875;SDS011;51369;49.862;9.908;2023-04-19T03:56:34;18.92;;;11.25;;
64875;SDS011;51369;49.862;9.908;2023-04-19T03:59:00;19.77;;;11.63;;
64875;SDS011;51369;49.862;9.908;2023-04-19T04:01:26;17.30;;;10.57;;
64875;SDS011;51369;49.862;9.908;2023-04-19T04:03:53;16.08;;;11.07;;
64875;SDS011;51369;49.862;9.908;2023-04-19T04:06:19;17.90;;;11.00;;
64875;SDS011;51369;49.862;9.908;2023-04-19T04:08:45;20.02;;;10.52;;
64875;SDS011;51369;49.862;9.908;2023-04-19T04:11:10;20.35;;;11.55;;
64875;SDS011;51369;49.862;9.908;2023-04-19T04:13:36;19.17;;;13.02;;
64875;SDS011;51369;49.862;9.908;2023-04-19T04:16:15;16.38;;;11.15;;
64875;SDS011;51369;49.862;9.908;2023-04-19T04:18:40;15.32;;;10.18;;
64875;SDS011;51369;49.862;9.908;2023-04-19T04:21:08;15.20;;;10.88;;
64875;SDS011;51369;49.862;9.908;2023-04-19T04:23:36;16.92;;;10.73;;
64875;SDS011;51369;49.862;9.908;2023-04-19T04:26:04;18.65;;;10.48;;
64875;SDS011;51369;49.862;9.908;2023-04-19T04:28:42;18.50;;;11.32;;
64875;SDS011;51369;49.862;9.908;2023-04-19T04:31:08;18.25;;;12.02;;
64875;SDS011;51369;49.862;9.908;2023-04-19T04:33:34;18.98;;;11.90;;
64875;SDS011;51369;49.862;9.908;2023-04-19T04:36:02;20.60;;;12.10;;
64875;SDS011;51369;49.862;9.908;2023-04-19T04:38:31;18.73;;;12.13;;
64875;SDS011;51369;49.862;9.908;2023-04-19T04:40:57;19.48;;;11.80;;
64875;SDS011;51369;49.862;9.908;2023-04-19T04:43:24;18.75;;;11.73;;
64875;SDS011;51369;49.862;9.908;2023-04-19T04:45:53;19.23;;;12.50;;
64875;SDS011;51369;49.862;9.908;2023-04-19T04:48:20;17.33;;;11.60;;
64875;SDS011;51369;49.862;9.908;2023-04-19T04:50:45;20.80;;;11.90;;
64875;SDS011;51369;49.862;9.908;2023-04-19T04:53:11;19.02;;;12.60;;
64875;SDS011;51369;49.862;9.908;2023-04-19T04:55:37;18.17;;;11.85;;
64875;SDS011;51369;49.862;9.908;2023-04-19T04:58:03;18.00;;;11.65;;
64875;SDS011;51369;49.862;9.908;2023-04-19T05:00:52;20.40;;;11.85;;
64875;SDS011;51369;49.862;9.908;2023-04-19T05:03:17;17.60;;;11.85;;
64875;SDS011;51369;49.862;9.908;2023-04-19T05:05:49;17.30;;;11.85;;
64875;SDS011;51369;49.862;9.908;2023-04-19T05:08:15;17.58;;;12.00;;
64875;SDS011;51369;49.862;9.908;2023-04-19T05:10:41;18.83;;;11.88;;
64875;SDS011;51369;49.862;9.908;2023-04-19T05:13:06;20.30;;;11.85;;
64875;SDS011;51369;49.862;9.908;2023-04-19T05:15:32;18.83;;;11.88;;
64875;SDS011;51369;49.862;9.908;2023-04-19T05:17:57;17.23;;;11.82;;
64875;SDS011;51369;49.862;9.908;2023-04-19T05:20:23;18.63;;;11.77;;
64875;SDS011;51369;49.862;9.908;2023-04-19T05:22:57;19.88;;;12.32;;
64875;SDS011;51369;49.862;9.908;2023-04-19T05:25:24;18.55;;;13.00;;
64875;SDS011;51369;49.862;9.908;2023-04-19T05:27:49;18.00;;;11.45;;
64875;SDS011;51369;49.862;9.908;2023-04-19T05:30:15;22.30;;;13.35;;
64875;SDS011;51369;49.862;9.908;2023-04-19T05:32:43;20.42;;;13.38;;
64875;SDS011;51369;49.862;9.908;2023-04-19T05:35:10;20.77;;;13.32;;
64875;SDS011;51369;49.862;9.908;2023-04-19T05:37:36;22.00;;;13.80;;
64875;SDS011;51369;49.862;9.908;2023-04-19T05:40:03;17.75;;;13.10;;
64875;SDS011;51369;49.862;9.908;2023-04-19T05:42:34;20.08;;;13.18;;
64875;SDS011;51369;49.862;9.908;2023-04-19T05:45:00;19.45;;;12.85;;
64875;SDS011;51369;49.862;9.908;2023-04-19T05:47:26;18.98;;;13.35;;
64875;SDS011;51369;49.862;9.908;2023-04-19T05:50:01;19.17;;;12.73;;
64875;SDS011;51369;49.862;9.908;2023-04-19T05:52:30;16.98;;;12.80;;
64875;SDS011;51369;49.862;9.908;2023-04-19T05:54:57;21.92;;;14.63;;
64875;SDS011;51369;49.862;9.908;2023-04-19T05:57:23;21.65;;;14.45;;
64875;SDS011;51369;49.862;9.908;2023-04-19T05:59:49;21.90;;;14.98;;
64875;SDS011;51369;49.862;9.908;2023-04-19T06:02:18;20.92;;;15.13;;
64875;SDS011;51369;49.862;9.908;2023-04-19T06:04:43;21.30;;;14.30;;
64875;SDS011;51369;49.862;9.908;2023-04-19T06:07:09;24.95;;;15.82;;
64875;SDS011;51369;49.862;9.908;2023-04-19T06:09:38;24.05;;;15.90;;
64875;SDS011;51369;49.862;9.908;2023-04-19T06:12:05;22.13;;;14.52;;
64875;SDS011;51369;49.862;9.908;2023-04-19T06:14:30;23.00;;;14.20;;
64875;SDS011;51369;49.862;9.908;2023-04-19T06:16:56;26.42;;;14.05;;
64875;SDS011;51369;49.862;9.908;2023-04-19T06:19:21;20.60;;;13.77;;
64875;SDS011;51369;49.862;9.908;2023-04-19T06:21:47;22.08;;;14.50;;
64875;SDS011;51369;49.862;9.908;2023-04-19T06:24:13;20.80;;;13.63;;
64875;SDS011;51369;49.862;9.908;2023-04-19T06:26:38;23.70;;;14.10;;
64875;SDS011;51369;49.862;9.908;2023-04-19T06:29:04;22.88;;;13.80;;
64875;SDS011;51369;49.862;9.908;2023-04-19T06:31:31;20.30;;;12.35;;
64875;SDS011;51369;49.862;9.908;2023-04-19T06:33:57;17.75;;;12.45;;
64875;SDS011;51369;49.862;9.908;2023-04-19T06:36:22;21.83;;;12.98;;
64875;SDS011;51369;49.862;9.908;2023-04-19T06:38:48;19.17;;;12.57;;
64875;SDS011;51369;49.862;9.908;2023-04-19T06:41:14;17.60;;;11.32;;
64875;SDS011;51369;49.862;9.908;2023-04-19T06:43:39;17.67;;;11.60;;
64875;SDS011;51369;49.862;9.908;2023-04-19T06:46:07;18.85;;;11.00;;
64875;SDS011;51369;49.862;9.908;2023-04-19T06:48:32;20.90;;;12.07;;
64875;SDS011;51369;49.862;9.908;2023-04-19T06:50:59;19.30;;;10.50;;
64875;SDS011;51369;49.862;9.908;2023-04-19T06:53:24;16.23;;;11.15;;
64875;SDS011;51369;49.862;9.908;2023-04-19T06:56:01;19.80;;;11.18;;
64875;SDS011;51369;49.862;9.908;2023-04-19T06:58:28;15.90;;;9.82;;
64875;SDS011;51369;49.862;9.908;2023-04-19T07:00:54;17.35;;;9.57;;
64875;SDS011;51369;49.862;9.908;2023-04-19T07:03:19;14.98;;;9.23;;
64875;SDS011;51369;49.862;9.908;2023-04-19T07:05:45;14.23;;;9.18;;
64875;SDS011;51369;49.862;9.908;2023-04-19T07:08:11;15.07;;;9.10;;
64875;SDS011;51369;49.862;9.908;2023-04-19T07:10:36;15.68;;;9.50;;
64875;SDS011;51369;49.862;9.908;2023-04-19T07:13:01;18.15;;;9.00;;
64875;SDS011;51369;49.862;9.908;2023-04-19T07:15:27;16.58;;;10.05;;
64875;SDS011;51369;49.862;9.908;2023-04-19T07:17:52;15.70;;;8.27;;
64875;SDS011;51369;49.862;9.908;2023-04-19T07:20:17;16.80;;;9.18;;
64875;SDS011;51369;49.862;9.908;2023-04-19T07:22:43;12.07;;;8.45;;
64875;SDS011;51369;49.862;9.908;2023-04-19T07:25:08;14.75;;;8.80;;
64875;SDS011;51369;49.862;9.908;2023-04-19T07:27:34;11.82;;;8.55;;
64875;SDS011;51369;49.862;9.908;2023-04-19T07:29:59;13.98;;;8.43;;
64875;SDS011;51369;49.862;9.908;2023-04-19T07:32:25;11.00;;;7.82;;
64875;SDS011;51369;49.862;9.908;2023-04-19T07:34:50;12.32;;;7.88;;
64875;SDS011;51369;49.862;9.908;2023-04-19T07:37:15;14.55;;;7.30;;
64875;SDS011;51369;49.862;9.908;2023-04-19T07:39:41;11.57;;;8.02;;
64875;SDS011;51369;49.862;9.908;2023-04-19T07:42:07;15.02;;;8.27;;
64875;SDS011;51369;49.862;9.908;2023-04-19T07:44:32;9.90;;;7.93;;
64875;SDS011;51369;49.862;9.908;2023-04-19T07:46:58;12.27;;;8.05;;
64875;SDS011;51369;49.862;9.908;2023-04-19T07:49:23;11.65;;;7.43;;
64875;SDS011;51369;49.862;9.908;2023-04-19T07:51:48;9.77;;;7.10;;
64875;SDS011;51369;49.862;9.908;2023-04-19T07:54:14;11.77;;;7.00;;
64875;SDS011;51369;49.862;9.908;2023-04-19T07:56:45;10.02;;;6.63;;
64875;SDS011;51369;49.862;9.908;2023-04-19T07:59:10;12.65;;;8.20;;
64875;SDS011;51369;49.862;9.908;2023-04-19T08:01:35;13.32;;;7.80;;
64875;SDS011;51369;49.862;9.908;2023-04-19T08:04:01;12.38;;;7.38;;
64875;SDS011;51369;49.862;9.908;2023-04-19T08:06:26;10.40;;;7.15;;
64875;SDS011;51369;49.862;9.908;2023-04-19T08:08:53;11.70;;;7.55;;
64875;SDS011;51369;49.862;9.908;2023-04-19T08:11:19;11.93;;;7.60;;
64875;SDS011;51369;49.862;9.908;2023-04-19T08:13:44;11.30;;;7.40;;
64875;SDS011;51369;49.862;9.908;2023-04-19T08:16:09;13.70;;;8.25;;
64875;SDS011;51369;49.862;9.908;2023-04-19T08:18:35;12.48;;;7.30;;
64875;SDS011;51369;49.862;9.908;2023-04-19T08:21:00;12.77;;;8.38;;
64875;SDS011;51369;49.862;9.908;2023-04-19T08:23:25;10.70;;;7.65;;
64875;SDS011;51369;49.862;9.908;2023-04-19T08:25:51;12.52;;;8.20;;
64875;SDS011;51369;49.862;9.908;2023-04-19T08:28:16;10.80;;;8.00;;
64875;SDS011;51369;49.862;9.908;2023-04-19T08:30:43;12.82;;;7.65;;
64875;SDS011;51369;49.862;9.908;2023-04-19T08:33:09;8.98;;;6.85;;
64875;SDS011;51369;49.862;9.908;2023-04-19T08:35:35;13.65;;;7.63;;
64875;SDS011;51369;49.862;9.908;2023-04-19T08:38:02;11.38;;;7.95;;
64875;SDS011;51369;49.862;9.908;2023-04-19T08:40:29;10.95;;;7.60;;
64875;SDS011;51369;49.862;9.908;2023-04-19T08:42:56;10.40;;;7.40;;
64875;SDS011;51369;49.862;9.908;2023-04-19T08:45:22;10.80;;;7.78;;
64875;SDS011;51369;49.862;9.908;2023-04-19T08:47:51;12.30;;;7.35;;
64875;SDS011;51369;49.862;9.908;2023-04-19T08:50:18;9.88;;;6.78;;
64875;SDS011;51369;49.862;9.908;2023-04-19T08:52:45;9.75;;;7.07;;
64875;SDS011;51369;49.862;9.908;2023-04-19T08:55:11;9.82;;;7.25;;
64875;SDS011;51369;49.862;9.908;2023-04-19T08:57:37;9.48;;;7.00;;
64875;SDS011;51369;49.862;9.908;2023-04-19T09:00:02;9.98;;;6.80;;
64875;SDS011;51369;49.862;9.908;2023-04-19T09:02:45;11.18;;;6.70;;
64875;SDS011;51369;49.862;9.908;2023-04-19T09:05:12;7.68;;;6.07;;
64875;SDS011;51369;49.862;9.908;2023-04-19T09:07:39;10.82;;;6.05;;
64875;SDS011;51369;49.862;9.908;2023-04-19T09:12:35;10.13;;;7.15;;
64875;SDS011;51369;49.862;9.908;2023-04-19T09:15:02;10.45;;;7.00;;
64875;SDS011;51369;49.862;9.908;2023-04-19T09:17:29;11.18;;;6.10;;
64875;SDS011;51369;49.862;9.908;2023-04-19T09:19:55;9.90;;;6.63;;
64875;SDS011;51369;49.862;9.908;2023-04-19T09:22:21;11.35;;;6.45;;
64875;SDS011;51369;49.862;9.908;2023-04-19T09:24:47;8.70;;;6.00;;
64875;SDS011;51369;49.862;9.908;2023-04-19T09:27:18;9.32;;;5.78;;
64875;SDS011;51369;49.862;9.908;2023-04-19T09:29:53;8.50;;;6.15;;
64875;SDS011;51369;49.862;9.908;2023-04-19T09:32:20;8.48;;;6.43;;
64875;SDS011;51369;49.862;9.908;2023-04-19T09:34:52;9.73;;;6.38;;
64875;SDS011;51369;49.862;9.908;2023-04-19T09:37:19;12.15;;;6.45;;
64875;SDS011;51369;49.862;9.908;2023-04-19T09:39:45;12.18;;;6.40;;
64875;SDS011;51369;49.862;9.908;2023-04-19T09:42:11;11.05;;;6.40;;
64875;SDS011;51369;49.862;9.908;2023-04-19T09:44:36;10.45;;;5.80;;
64875;SDS011;51369;49.862;9.908;2023-04-19T09:47:04;10.25;;;5.53;;
64875;SDS011;51369;49.862;9.908;2023-04-19T09:49:45;9.20;;;6.00;;
64875;SDS011;51369;49.862;9.908;2023-04-19T09:52:12;8.95;;;6.22;;
64875;SDS011;51369;49.862;9.908;2023-04-19T09:54:38;8.35;;;6.38;;
64875;SDS011;51369;49.862;9.908;2023-04-19T09:57:03;7.10;;;5.47;;
64875;SDS011;51369;49.862;9.908;2023-04-19T09:59:30;7.65;;;5.70;;
64875;SDS011;51369;49.862;9.908;2023-04-19T10:01:55;8.82;;;6.38;;
64875;SDS011;51369;49.862;9.908;2023-04-19T10:04:24;8.80;;;6.53;;
64875;SDS011;51369;49.862;9.908;2023-04-19T10:06:51;11.88;;;6.22;;
64875;SDS011;51369;49.862;9.908;2023-04-19T10:09:19;6.97;;;5.75;;
64875;SDS011;51369;49.862;9.908;2023-04-19T10:11:47;11.02;;;5.90;;
64875;SDS011;51369;49.862;9.908;2023-04-19T10:14:14;9.77;;;6.18;;
64875;SDS011;51369;49.862;9.908;2023-04-19T10:16:41;9.73;;;6.53;;
64875;SDS011;51369;49.862;9.908;2023-04-19T10:19:10;10.90;;;7.07;;
64875;SDS011;51369;49.862;9.908;2023-04-19T10:21:37;12.52;;;6.60;;
64875;SDS011;51369;49.862;9.908;2023-04-19T10:24:05;9.38;;;6.65;;
64875;SDS011;51369;49.862;9.908;2023-04-19T10:27:04;9.98;;;6.45;;
64875;SDS011;51369;49.862;9.908;2023-04-19T10:32:17;9.52;;;6.97;;
64875;SDS011;51369;49.862;9.908;2023-04-19T10:34:44;13.52;;;8.32;;
64875;SDS011;51369;49.862;9.908;2023-04-19T10:37:10;14.20;;;7.80;;
64875;SDS011;51369;49.862;9.908;2023-04-19T10:39:39;15.27;;;7.43;;
64875;SDS011;51369;49.862;9.908;2023-04-19T10:42:05;12.75;;;7.60;;
64875;SDS011;51369;49.862;9.908;2023-04-19T10:44:31;15.00;;;8.82;;
64875;SDS011;51369;49.862;9.908;2023-04-19T10:46:57;16.50;;;8.90;;
64875;SDS011;51369;49.862;9.908;2023-04-19T10:49:23;11.32;;;7.45;;
64875;SDS011;51369;49.862;9.908;2023-04-19T10:51:50;13.73;;;7.28;;
64875;SDS011;51369;49.862;9.908;2023-04-19T10:54:34;13.07;;;6.95;;
64875;SDS011;51369;49.862;9.908;2023-04-19T10:59:30;7.78;;;5.97;;
64875;SDS011;51369;49.862;9.908;2023-04-19T11:02:00;9.60;;;5.68;;
64875;SDS011;51369;49.862;9.908;2023-04-19T11:06:59;7.05;;;5.15;;
64875;SDS011;51369;49.862;9.908;2023-04-19T11:09:27;9.38;;;5.50;;
64875;SDS011;51369;49.862;9.908;2023-04-19T11:12:00;9.27;;;5.15;;
64875;SDS011;51369;49.862;9.908;2023-04-19T11:14:27;7.43;;;4.88;;
64875;SDS011;51369;49.862;9.908;2023-04-19T11:16:55;9.20;;;5.07;;
64875;SDS011;51369;49.862;9.908;2023-04-19T11:19:20;7.13;;;4.53;;
64875;SDS011;51369;49.862;9.908;2023-04-19T11:21:46;9.07;;;5.05;;
64875;SDS011;51369;49.862;9.908;2023-04-19T11:24:13;7.68;;;5.43;;
64875;SDS011;51369;49.862;9.908;2023-04-19T11:26:46;9.98;;;6.25;;
64875;SDS011;51369;49.862;9.908;2023-04-19T11:29:15;10.30;;;5.43;;
64875;SDS011;51369;49.862;9.908;2023-04-19T11:31:43;8.50;;;5.80;;
64875;SDS011;51369;49.862;9.908;2023-04-19T11:34:10;8.20;;;5.15;;
64875;SDS011;51369;49.862;9.908;2023-04-19T11:36:45;8.77;;;4.88;;
64875;SDS011;51369;49.862;9.908;2023-04-19T11:39:11;5.53;;;3.60;;
64875;SDS011;51369;49.862;9.908;2023-04-19T11:41:38;7.57;;;4.22;;
64875;SDS011;51369;49.862;9.908;2023-04-19T11:44:11;5.53;;;3.53;;
64875;SDS011;51369;49.862;9.908;2023-04-19T11:46:39;7.15;;;3.35;;
64875;SDS011;51369;49.862;9.908;2023-04-19T11:49:05;8.50;;;3.60;;
64875;SDS011;51369;49.862;9.908;2023-04-19T11:51:31;7.68;;;3.47;;
64875;SDS011;51369;49.862;9.908;2023-04-19T11:53:56;4.57;;;2.92;;
64875;SDS011;51369;49.862;9.908;2023-04-19T11:56:22;4.43;;;2.85;;
64875;SDS011;51369;49.862;9.908;2023-04-19T11:58:48;6.05;;;2.78;;
64875;SDS011;51369;49.862;9.908;2023-04-19T12:01:20;5.80;;;2.83;;
64875;SDS011;51369;49.862;9.908;2023-04-19T12:06:13;3.05;;;2.15;;
64875;SDS011;51369;49.862;9.908;2023-04-19T12:08:47;3.80;;;2.83;;
64875;SDS011;51369;49.862;9.908;2023-04-19T12:11:19;3.40;;;2.25;;
64875;SDS011;51369;49.862;9.908;2023-04-19T12:13:47;2.90;;;2.53;;
64875;SDS011;51369;49.862;9.908;2023-04-19T12:16:13;6.15;;;3.85;;
64875;SDS011;51369;49.862;9.908;2023-04-19T12:18:46;5.43;;;2.20;;
64875;SDS011;51369;49.862;9.908;2023-04-19T12:21:24;4.30;;;2.83;;
64875;SDS011;51369;49.862;9.908;2023-04-19T12:23:52;2.35;;;1.90;;
64875;SDS011;51369;49.862;9.908;2023-04-19T12:26:19;5.05;;;2.58;;
64875;SDS011;51369;49.862;9.908;2023-04-19T12:28:44;3.95;;;2.28;;
64875;SDS011;51369;49.862;9.908;2023-04-19T12:31:09;3.25;;;2.40;;
64875;SDS011;51369;49.862;9.908;2023-04-19T12:33:35;5.82;;;2.20;;
64875;SDS011;51369;49.862;9.908;2023-04-19T12:36:00;3.83;;;1.85;;
64875;SDS011;51369;49.862;9.908;2023-04-19T12:38:25;3.00;;;2.10;;
64875;SDS011;51369;49.862;9.908;2023-04-19T12:40:51;5.57;;;1.77;;
64875;SDS011;51369;49.862;9.908;2023-04-19T12:43:16;2.05;;;1.60;;
64875;SDS011;51369;49.862;9.908;2023-04-19T12:45:42;2.58;;;1.70;;
64875;SDS011;51369;49.862;9.908;2023-04-19T12:48:08;2.65;;;1.70;;
64875;SDS011;51369;49.862;9.908;2023-04-19T12:50:33;2.03;;;1.80;;
64875;SDS011;51369;49.862;9.908;2023-04-19T12:52:58;2.88;;;2.20;;
64875;SDS011;51369;49.862;9.908;2023-04-19T12:55:24;1.77;;;1.45;;
64875;SDS011;51369;49.862;9.908;2023-04-19T12:57:49;1.90;;;1.33;;
64875;SDS011;51369;49.862;9.908;2023-04-19T13:00:15;2.53;;;2.13;;
64875;SDS011;51369;49.862;9.908;2023-04-19T13:02:41;3.63;;;2.00;;
64875;SDS011;51369;49.862;9.908;2023-04-19T13:05:07;2.80;;;1.70;;
64875;SDS011;51369;49.862;9.908;2023-04-19T13:07:32;3.50;;;2.30;;
64875;SDS011;51369;49.862;9.908;2023-04-19T13:09:58;5.45;;;1.75;;
64875;SDS011;51369;49.862;9.908;2023-04-19T13:12:24;3.33;;;2.08;;
64875;SDS011;51369;49.862;9.908;2023-04-19T13:14:49;4.50;;;1.52;;
64875;SDS011;51369;49.862;9.908;2023-04-19T13:17:19;2.65;;;1.60;;
64875;SDS011;51369;49.862;9.908;2023-04-19T13:19:45;1.77;;;1.63;;
64875;SDS011;51369;49.862;9.908;2023-04-19T13:22:10;1.98;;;1.67;;
64875;SDS011;51369;49.862;9.908;2023-04-19T13:24:35;2.03;;;1.50;;
64875;SDS011;51369;49.862;9.908;2023-04-19T13:27:01;2.25;;;1.58;;
64875;SDS011;51369;49.862;9.908;2023-04-19T13:29:26;4.60;;;2.10;;
64875;SDS011;51369;49.862;9.908;2023-04-19T13:31:53;3.05;;;2.22;;
64875;SDS011;51369;49.862;9.908;2023-04-19T13:34:18;3.00;;;1.80;;
64875;SDS011;51369;49.862;9.908;2023-04-19T13:36:44;6.30;;;1.70;;
64875;SDS011;51369;49.862;9.908;2023-04-19T13:39:09;2.47;;;1.90;;
64875;SDS011;51369;49.862;9.908;2023-04-19T13:41:34;3.72;;;1.85;;
64875;SDS011;51369;49.862;9.908;2023-04-19T13:44:00;2.50;;;2.20;;
64875;SDS011;51369;49.862;9.908;2023-04-19T13:46:25;2.00;;;1.77;;
64875;SDS011;51369;49.862;9.908;2023-04-19T13:48:51;3.40;;;2.17;;
64875;SDS011;51369;49.862;9.908;2023-04-19T13:51:16;3.90;;;2.10;;
64875;SDS011;51369;49.862;9.908;2023-04-19T13:53:42;5.13;;;1.95;;
64875;SDS011;51369;49.862;9.908;2023-04-19T13:56:07;3.33;;;1.90;;
64875;SDS011;51369;49.862;9.908;2023-04-19T13:58:34;5.70;;;1.70;;
64875;SDS011;51369;49.862;9.908;2023-04-19T14:01:00;4.43;;;2.08;;
64875;SDS011;51369;49.862;9.908;2023-04-19T14:03:25;4.75;;;1.77;;
64875;SDS011;51369;49.862;9.908;2023-04-19T14:05:51;4.45;;;2.10;;
64875;SDS011;51369;49.862;9.908;2023-04-19T14:08:16;3.28;;;2.10;;
64875;SDS011;51369;49.862;9.908;2023-04-19T14:10:41;3.00;;;2.10;;
64875;SDS011;51369;49.862;9.908;2023-04-19T14:13:07;3.05;;;2.30;;
64875;SDS011;51369;49.862;9.908;2023-04-19T14:15:33;2.42;;;1.90;;
64875;SDS011;51369;49.862;9.908;2023-04-19T14:17:58;3.72;;;2.13;;
64875;SDS011;51369;49.862;9.908;2023-04-19T14:20:24;2.67;;;1.90;;
64875;SDS011;51369;49.862;9.908;2023-04-19T14:22:50;2.70;;;2.10;;
64875;SDS011;51369;49.862;9.908;2023-04-19T14:25:15;3.85;;;1.95;;
64875;SDS011;51369;49.862;9.908;2023-04-19T14:27:41;2.15;;;1.90;;
64875;SDS011;51369;49.862;9.908;2023-04-19T14:30:07;2.90;;;1.90;;
64875;SDS011;51369;49.862;9.908;2023-04-19T14:32:34;2.67;;;2.33;;
64875;SDS011;51369;49.862;9.908;2023-04-19T14:34:59;2.60;;;2.15;;
64875;SDS011;51369;49.862;9.908;2023-04-19T14:37:26;2.50;;;2.15;;
64875;SDS011;51369;49.862;9.908;2023-04-19T14:39:52;2.75;;;1.83;;
64875;SDS011;51369;49.862;9.908;2023-04-19T14:42:17;6.05;;;1.98;;
64875;SDS011;51369;49.862;9.908;2023-04-19T14:44:43;4.32;;;2.50;;
64875;SDS011;51369;49.862;9.908;2023-04-19T14:47:10;4.50;;;2.05;;